Gilbertville, Iowa
Current Conditions -  °F | °C
As of 12:54 AM on Saturday 25 Oct 2014 (Local Time) from KALO Reporting Station
Moderate Fog Moderate Fog  
Wind Chill: 55°   Ceiling: 200
Heat Index: 55°   Visibility: 0.25mi
Dew Point: 55°   Wind: 5mph
Humidity: 100%   Direction: 280°W
Pressure: 29.94"   Gusts: NA
Location:  42.42°N, 92.21°W
Report Text: KALO 250554Z 28004KT 1/4SM R12/1400V1800FT FG VV002 13/13 A2994 RMK AO2 SLP141 T01280128 10144 20128 401610078 53002
Loading
Personal Weather Stations






























Interactive Weather Map
Tropical Storm Tracking
New forecast layout! Learn more

10-Day Weather Forecast

Advertisements
Track Severe Weather on mobile